PWSweather.com
Personal Weather Stations
Station Observations
KMIEASTT1
Tawas Bay, East Tawas, MI 48730

Tawas BayEast Tawas, MI 48730

Lat: 44.28, Lon: -83.48

Elevation: 600

Station Type: Davis VantagePro

http://www.tawasbayweather.com

High Low Average
Temperature 41.2°F5.1°C 31.3°F-0.4°C 36.0°F2.2°C
Dew Point 34.0°F1.1°C 20.2°F-6.6°C 28.8°F-1.8°C
Winds 12.0 mph 19.3 kmh Calm Calm 5.0 mph W8.0 kmh W
Wind Gusts 19.0 mph30.6 kmh -- 8.0 mph12.9 kmh
Humidity 86% 63% 75%
Pressure 30.10 in1019.3 mb 29.65 in1004.1 mb -
Precipitation 0.00 in0.0 mm - -
Hour Temp Dew Point Humidity Winds Wind Gusts Pressure Precip Precip Rate Daily Precip Total
12:01 AM 37.8°F3.2°C 34.0°F1.1°C 86% Calm Calm 2.0 mph3.2 kmh 29.67 in1004.7 mb 0.00 in0.0 mm 0.00 in/hr0.0 mm/hr 0.00 in0.0 mm
12:15 AM 38.0°F3.3°C 33.9°F1.1°C 85% 1.0 mph ESE1.6 kmh ESE 2.0 mph3.2 kmh 29.67 in1004.7 mb 0.00 in0.0 mm 0.00 in/hr0.0 mm/hr 0.00 in0.0 mm
12:30 AM 37.9°F3.3°C 34.1°F1.2°C 86% Calm Calm 2.0 mph3.2 kmh 29.67 in1004.7 mb 0.00 in0.0 mm 0.00 in/hr0.0 mm/hr 0.00 in0.0 mm
12:45 AM 38.1°F3.4°C 34.0°F1.1°C 85% 1.0 mph ESE1.6 kmh ESE 2.0 mph3.2 kmh 29.67 in1004.7 mb 0.00 in0.0 mm 0.00 in/hr0.0 mm/hr 0.00 in0.0 mm
01:01 AM 38.6°F3.7°C 33.9°F1.1°C 83% Calm Calm -- 29.67 in1004.7 mb 0.00 in0.0 mm 0.00 in/hr0.0 mm/hr 0.00 in0.0 mm
01:15 AM 38.6°F3.7°C 33.9°F1.1°C 83% Calm Calm -- 29.67 in1004.7 mb 0.00 in0.0 mm 0.00 in/hr0.0 mm/hr 0.00 in0.0 mm
01:30 AM 38.7°F3.7°C 34.0°F1.1°C 83% Calm Calm -- 29.67 in1004.7 mb 0.00 in0.0 mm 0.00 in/hr0.0 mm/hr 0.00 in0.0 mm
01:45 AM 38.3°F3.5°C 33.3°F0.7°C 82% Calm Calm 1.0 mph1.6 kmh 29.66 in1004.4 mb 0.00 in0.0 mm 0.00 in/hr0.0 mm/hr 0.00 in0.0 mm
02:01 AM 38.7°F3.7°C 33.4°F0.8°C 81% Calm Calm 1.0 mph1.6 kmh 29.66 in1004.4 mb 0.00 in0.0 mm 0.00 in/hr0.0 mm/hr 0.00 in0.0 mm
02:15 AM 39.2°F4.0°C 32.3°F0.2°C 76% 1.0 mph ESE1.6 kmh ESE 2.0 mph3.2 kmh 29.66 in1004.4 mb 0.00 in0.0 mm 0.00 in/hr0.0 mm/hr 0.00 in0.0 mm
02:30 AM 39.3°F4.1°C 31.4°F-0.3°C 73% 2.0 mph ESE3.2 kmh ESE 2.0 mph3.2 kmh 29.65 in1004.1 mb 0.00 in0.0 mm 0.00 in/hr0.0 mm/hr 0.00 in0.0 mm
02:45 AM 39.4°F4.1°C 31.5°F-0.3°C 73% 2.0 mph ESE3.2 kmh ESE 2.0 mph3.2 kmh 29.66 in1004.4 mb 0.00 in0.0 mm 0.00 in/hr0.0 mm/hr 0.00 in0.0 mm
03:01 AM 38.9°F3.8°C 31.0°F-0.6°C 73% 2.0 mph ESE3.2 kmh ESE 2.0 mph3.2 kmh 29.66 in1004.4 mb 0.00 in0.0 mm 0.00 in/hr0.0 mm/hr 0.00 in0.0 mm
03:15 AM 38.8°F3.8°C 30.9°F-0.6°C 73% 2.0 mph NW3.2 kmh NW 3.0 mph4.8 kmh 29.66 in1004.4 mb 0.00 in0.0 mm 0.00 in/hr0.0 mm/hr 0.00 in0.0 mm
03:30 AM 38.8°F3.8°C 31.2°F-0.4°C 74% 2.0 mph NW3.2 kmh NW 5.0 mph8.0 kmh 29.67 in1004.7 mb 0.00 in0.0 mm 0.00 in/hr0.0 mm/hr 0.00 in0.0 mm
03:45 AM 38.7°F3.7°C 31.5°F-0.3°C 75% 3.0 mph NW4.8 kmh NW 4.0 mph6.4 kmh 29.68 in1005.1 mb 0.00 in0.0 mm 0.00 in/hr0.0 mm/hr 0.00 in0.0 mm
04:00 AM 38.5°F3.6°C 31.6°F-0.2°C 76% 4.0 mph NNW6.4 kmh NNW 4.0 mph6.4 kmh 29.68 in1005.1 mb 0.00 in0.0 mm 0.00 in/hr0.0 mm/hr 0.00 in0.0 mm
04:15 AM 38.4°F3.6°C 31.5°F-0.3°C 76% 3.0 mph NW4.8 kmh NW 4.0 mph6.4 kmh 29.68 in1005.1 mb 0.00 in0.0 mm 0.00 in/hr0.0 mm/hr 0.00 in0.0 mm
04:30 AM 38.1°F3.4°C 31.2°F-0.4°C 76% 1.0 mph NW1.6 kmh NW 3.0 mph4.8 kmh 29.68 in1005.1 mb 0.00 in0.0 mm 0.00 in/hr0.0 mm/hr 0.00 in0.0 mm
04:45 AM 37.8°F3.2°C 30.9°F-0.6°C 76% 2.0 mph NW3.2 kmh NW 4.0 mph6.4 kmh 29.69 in1005.4 mb 0.00 in0.0 mm 0.00 in/hr0.0 mm/hr 0.00 in0.0 mm
05:00 AM 37.5°F3.1°C 31.0°F-0.6°C 77% 2.0 mph NW3.2 kmh NW 3.0 mph4.8 kmh 29.69 in1005.4 mb 0.00 in0.0 mm 0.00 in/hr0.0 mm/hr 0.00 in0.0 mm
05:15 AM 37.3°F2.9°C 30.8°F-0.7°C 77% 2.0 mph NW3.2 kmh NW 3.0 mph4.8 kmh 29.69 in1005.4 mb 0.00 in0.0 mm 0.00 in/hr0.0 mm/hr 0.00 in0.0 mm
05:30 AM 37.0°F2.8°C 30.5°F-0.8°C 77% 2.0 mph NW3.2 kmh NW 3.0 mph4.8 kmh 29.68 in1005.1 mb 0.00 in0.0 mm 0.00 in/hr0.0 mm/hr 0.00 in0.0 mm
05:45 AM 36.5°F2.5°C 30.0°F-1.1°C 77% 1.0 mph W1.6 kmh W 2.0 mph3.2 kmh 29.68 in1005.1 mb 0.00 in0.0 mm 0.00 in/hr0.0 mm/hr 0.00 in0.0 mm
06:01 AM 35.8°F2.1°C 29.9°F-1.2°C 79% 1.0 mph W1.6 kmh W 2.0 mph3.2 kmh 29.68 in1005.1 mb 0.00 in0.0 mm 0.00 in/hr0.0 mm/hr 0.00 in0.0 mm
06:15 AM 35.2°F1.8°C 29.7°F-1.3°C 80% 1.0 mph W1.6 kmh W 2.0 mph3.2 kmh 29.69 in1005.4 mb 0.00 in0.0 mm 0.00 in/hr0.0 mm/hr 0.00 in0.0 mm
06:30 AM 34.3°F1.3°C 29.1°F-1.6°C 81% 2.0 mph WNW3.2 kmh WNW 3.0 mph4.8 kmh 29.70 in1005.8 mb 0.00 in0.0 mm 0.00 in/hr0.0 mm/hr 0.00 in0.0 mm
06:45 AM 33.9°F1.1°C 29.0°F-1.7°C 82% 2.0 mph NW3.2 kmh NW 3.0 mph4.8 kmh 29.70 in1005.8 mb 0.00 in0.0 mm 0.00 in/hr0.0 mm/hr 0.00 in0.0 mm
07:01 AM 33.8°F1.0°C 28.9°F-1.7°C 82% 2.0 mph NW3.2 kmh NW 4.0 mph6.4 kmh 29.71 in1006.1 mb 0.00 in0.0 mm 0.00 in/hr0.0 mm/hr 0.00 in0.0 mm
07:15 AM 33.5°F0.8°C 28.9°F-1.7°C 83% 2.0 mph WNW3.2 kmh WNW 3.0 mph4.8 kmh 29.72 in1006.4 mb 0.00 in0.0 mm 0.00 in/hr0.0 mm/hr 0.00 in0.0 mm
07:30 AM 33.3°F0.7°C 29.0°F-1.7°C 84% 3.0 mph WNW4.8 kmh WNW 4.0 mph6.4 kmh 29.74 in1007.1 mb 0.00 in0.0 mm 0.00 in/hr0.0 mm/hr 0.00 in0.0 mm
07:45 AM 33.2°F0.7°C 28.9°F-1.7°C 84% 2.0 mph W3.2 kmh W 2.0 mph3.2 kmh 29.74 in1007.1 mb 0.00 in0.0 mm 0.00 in/hr0.0 mm/hr 0.00 in0.0 mm
08:01 AM 33.3°F0.7°C 29.0°F-1.7°C 84% 4.0 mph WSW6.4 kmh WSW 5.0 mph8.0 kmh 29.73 in1006.8 mb 0.00 in0.0 mm 0.00 in/hr0.0 mm/hr 0.00 in0.0 mm
08:15 AM 32.9°F0.5°C 29.2°F-1.6°C 86% 3.0 mph WSW4.8 kmh WSW 4.0 mph6.4 kmh 29.74 in1007.1 mb 0.00 in0.0 mm 0.00 in/hr0.0 mm/hr 0.00 in0.0 mm
08:30 AM 33.3°F0.7°C 29.6°F-1.3°C 86% 6.0 mph WSW9.7 kmh WSW 6.0 mph9.7 kmh 29.74 in1007.1 mb 0.00 in0.0 mm 0.00 in/hr0.0 mm/hr 0.00 in0.0 mm
08:45 AM 34.0°F1.1°C 30.0°F-1.1°C 85% 5.0 mph NW8.0 kmh NW 7.0 mph11.3 kmh 29.75 in1007.5 mb 0.00 in0.0 mm 0.00 in/hr0.0 mm/hr 0.00 in0.0 mm
09:01 AM 34.2°F1.2°C 30.2°F-1.0°C 85% 5.0 mph WNW8.0 kmh WNW 9.0 mph14.5 kmh 29.75 in1007.5 mb 0.00 in0.0 mm 0.00 in/hr0.0 mm/hr 0.00 in0.0 mm
09:15 AM 34.1°F1.2°C 30.1°F-1.1°C 85% 4.0 mph NW6.4 kmh NW 9.0 mph14.5 kmh 29.76 in1007.8 mb 0.00 in0.0 mm 0.00 in/hr0.0 mm/hr 0.00 in0.0 mm
09:30 AM 34.3°F1.3°C 30.6°F-0.8°C 86% 4.0 mph NW6.4 kmh NW 7.0 mph11.3 kmh 29.76 in1007.8 mb 0.00 in0.0 mm 0.00 in/hr0.0 mm/hr 0.00 in0.0 mm
09:45 AM 34.5°F1.4°C 30.8°F-0.7°C 86% 5.0 mph NW8.0 kmh NW 7.0 mph11.3 kmh 29.78 in1008.5 mb 0.00 in0.0 mm 0.00 in/hr0.0 mm/hr 0.00 in0.0 mm
10:01 AM 34.8°F1.6°C 30.8°F-0.7°C 85% 3.0 mph NW4.8 kmh NW 6.0 mph9.7 kmh 29.79 in1008.8 mb 0.00 in0.0 mm 0.00 in/hr0.0 mm/hr 0.00 in0.0 mm
10:15 AM 35.4°F1.9°C 31.4°F-0.3°C 85% 4.0 mph WNW6.4 kmh WNW 10.0 mph16.1 kmh 29.80 in1009.1 mb 0.00 in0.0 mm 0.00 in/hr0.0 mm/hr 0.00 in0.0 mm
10:30 AM 36.1°F2.3°C 31.7°F-0.2°C 84% 3.0 mph NW4.8 kmh NW 10.0 mph16.1 kmh 29.80 in1009.1 mb 0.00 in0.0 mm 0.00 in/hr0.0 mm/hr 0.00 in0.0 mm
10:45 AM 36.2°F2.3°C 31.8°F-0.1°C 84% 10.0 mph W16.1 kmh W 11.0 mph17.7 kmh 29.81 in1009.5 mb 0.00 in0.0 mm 0.00 in/hr0.0 mm/hr 0.00 in0.0 mm
11:01 AM 36.2°F2.3°C 31.8°F-0.1°C 84% 6.0 mph WNW9.7 kmh WNW 8.0 mph12.9 kmh 29.82 in1009.8 mb 0.00 in0.0 mm 0.00 in/hr0.0 mm/hr 0.00 in0.0 mm
11:15 AM 37.8°F3.2°C 32.8°F0.4°C 82% 11.0 mph WNW17.7 kmh WNW 11.0 mph17.7 kmh 29.83 in1010.2 mb 0.00 in0.0 mm 0.00 in/hr0.0 mm/hr 0.00 in0.0 mm
11:30 AM 38.2°F3.4°C 32.6°F0.3°C 80% 6.0 mph WNW9.7 kmh WNW 12.0 mph19.3 kmh 29.84 in1010.5 mb 0.00 in0.0 mm 0.00 in/hr0.0 mm/hr 0.00 in0.0 mm
11:45 AM 38.7°F3.7°C 32.8°F0.4°C 79% 9.0 mph WNW14.5 kmh WNW 13.0 mph20.9 kmh 29.84 in1010.5 mb 0.00 in0.0 mm 0.00 in/hr0.0 mm/hr 0.00 in0.0 mm
12:01 PM 39.2°F4.0°C 32.6°F0.3°C 77% 11.0 mph WNW17.7 kmh WNW 14.0 mph22.5 kmh 29.85 in1010.8 mb 0.00 in0.0 mm 0.00 in/hr0.0 mm/hr 0.00 in0.0 mm
12:15 PM 40.4°F4.7°C 32.4°F0.2°C 73% 4.0 mph NW6.4 kmh NW 11.0 mph17.7 kmh 29.85 in1010.8 mb 0.00 in0.0 mm 0.00 in/hr0.0 mm/hr 0.00 in0.0 mm
12:30 PM 41.2°F5.1°C 32.9°F0.5°C 72% 6.0 mph NW9.7 kmh NW 9.0 mph14.5 kmh 29.85 in1010.8 mb 0.00 in0.0 mm 0.00 in/hr0.0 mm/hr 0.00 in0.0 mm
12:45 PM 38.5°F3.6°C 30.6°F-0.8°C 73% 9.0 mph NW14.5 kmh NW 13.0 mph20.9 kmh 29.87 in1011.5 mb 0.00 in0.0 mm 0.00 in/hr0.0 mm/hr 0.00 in0.0 mm
01:01 PM 38.6°F3.7°C 30.0°F-1.1°C 71% 10.0 mph WNW16.1 kmh WNW 14.0 mph22.5 kmh 29.87 in1011.5 mb 0.00 in0.0 mm 0.00 in/hr0.0 mm/hr 0.00 in0.0 mm
01:15 PM 38.6°F3.7°C 30.0°F-1.1°C 71% 11.0 mph WSW17.7 kmh WSW 13.0 mph20.9 kmh 29.88 in1011.9 mb 0.00 in0.0 mm 0.00 in/hr0.0 mm/hr 0.00 in0.0 mm
01:31 PM 37.7°F3.2°C 28.8°F-1.8°C 70% 11.0 mph NW17.7 kmh NW 14.0 mph22.5 kmh 29.89 in1012.2 mb 0.00 in0.0 mm 0.00 in/hr0.0 mm/hr 0.00 in0.0 mm
01:45 PM 38.5°F3.6°C 28.1°F-2.2°C 66% 6.0 mph NW9.7 kmh NW 11.0 mph17.7 kmh 29.89 in1012.2 mb 0.00 in0.0 mm 0.00 in/hr0.0 mm/hr 0.00 in0.0 mm
02:01 PM 37.8°F3.2°C 27.1°F-2.7°C 65% 6.0 mph W9.7 kmh W 16.0 mph25.7 kmh 29.90 in1012.5 mb 0.00 in0.0 mm 0.00 in/hr0.0 mm/hr 0.00 in0.0 mm
02:15 PM 36.6°F2.6°C 26.0°F-3.3°C 65% 3.0 mph NW4.8 kmh NW 18.0 mph29.0 kmh 29.91 in1012.9 mb 0.00 in0.0 mm 0.00 in/hr0.0 mm/hr 0.00 in0.0 mm
02:30 PM 36.1°F2.3°C 25.1°F-3.8°C 64% 10.0 mph WNW16.1 kmh WNW 16.0 mph25.7 kmh 29.92 in1013.2 mb 0.00 in0.0 mm 0.00 in/hr0.0 mm/hr 0.00 in0.0 mm
02:45 PM 36.0°F2.2°C 25.8°F-3.4°C 66% 7.0 mph NW11.3 kmh NW 13.0 mph20.9 kmh 29.92 in1013.2 mb 0.00 in0.0 mm 0.00 in/hr0.0 mm/hr 0.00 in0.0 mm
03:01 PM 35.7°F2.1°C 26.2°F-3.2°C 68% 9.0 mph NNW14.5 kmh NNW 17.0 mph27.4 kmh 29.93 in1013.5 mb 0.00 in0.0 mm 0.00 in/hr0.0 mm/hr 0.00 in0.0 mm
03:16 PM 35.2°F1.8°C 26.4°F-3.1°C 70% 12.0 mph NW19.3 kmh NW 16.0 mph25.7 kmh 29.94 in1013.9 mb 0.00 in0.0 mm 0.00 in/hr0.0 mm/hr 0.00 in0.0 mm
03:30 PM 35.9°F2.2°C 26.0°F-3.3°C 67% 3.0 mph WNW4.8 kmh WNW 13.0 mph20.9 kmh 29.95 in1014.2 mb 0.00 in0.0 mm 0.00 in/hr0.0 mm/hr 0.00 in0.0 mm
03:45 PM 35.0°F1.7°C 26.6°F-3.0°C 71% 5.0 mph NW8.0 kmh NW 9.0 mph14.5 kmh 29.96 in1014.6 mb 0.00 in0.0 mm 0.00 in/hr0.0 mm/hr 0.00 in0.0 mm
04:01 PM 34.8°F1.6°C 25.7°F-3.5°C 69% 9.0 mph WNW14.5 kmh WNW 18.0 mph29.0 kmh 29.97 in1014.9 mb 0.00 in0.0 mm 0.00 in/hr0.0 mm/hr 0.00 in0.0 mm
04:15 PM 34.6°F1.4°C 24.4°F-4.2°C 66% 9.0 mph NW14.5 kmh NW 19.0 mph30.6 kmh 29.97 in1014.9 mb 0.00 in0.0 mm 0.00 in/hr0.0 mm/hr 0.00 in0.0 mm
04:31 PM 34.2°F1.2°C 23.7°F-4.6°C 65% 6.0 mph W9.7 kmh W 13.0 mph20.9 kmh 29.99 in1015.6 mb 0.00 in0.0 mm 0.00 in/hr0.0 mm/hr 0.00 in0.0 mm
05:01 PM 33.0°F0.6°C 22.5°F-5.3°C 65% 6.0 mph WNW9.7 kmh WNW 11.0 mph17.7 kmh 30.01 in1016.3 mb 0.00 in0.0 mm 0.00 in/hr0.0 mm/hr 0.00 in0.0 mm
05:15 PM 32.7°F0.4°C 22.6°F-5.2°C 66% 3.0 mph NW4.8 kmh NW 11.0 mph17.7 kmh 30.02 in1016.6 mb 0.00 in0.0 mm 0.00 in/hr0.0 mm/hr 0.00 in0.0 mm
05:30 PM 32.4°F0.2°C 22.7°F-5.2°C 67% 5.0 mph NW8.0 kmh NW 15.0 mph24.1 kmh 30.03 in1016.9 mb 0.00 in0.0 mm 0.00 in/hr0.0 mm/hr 0.00 in0.0 mm
05:45 PM 32.3°F0.2°C 22.9°F-5.1°C 68% 8.0 mph N12.9 kmh N 11.0 mph17.7 kmh 30.04 in1017.3 mb 0.00 in0.0 mm 0.00 in/hr0.0 mm/hr 0.00 in0.0 mm
06:01 PM 32.2°F0.1°C 22.1°F-5.5°C 66% 8.0 mph WNW12.9 kmh WNW 13.0 mph20.9 kmh 30.05 in1017.6 mb 0.00 in0.0 mm 0.00 in/hr0.0 mm/hr 0.00 in0.0 mm
06:15 PM 32.1°F0.1°C 22.0°F-5.6°C 66% 4.0 mph NW6.4 kmh NW 14.0 mph22.5 kmh 30.06 in1017.9 mb 0.00 in0.0 mm 0.00 in/hr0.0 mm/hr 0.00 in0.0 mm
06:31 PM 32.0°F0.0°C 22.3°F-5.4°C 67% 2.0 mph NW3.2 kmh NW 10.0 mph16.1 kmh 30.07 in1018.3 mb 0.00 in0.0 mm 0.00 in/hr0.0 mm/hr 0.00 in0.0 mm
06:45 PM 31.7°F-0.2°C 21.7°F-5.7°C 66% 7.0 mph NW11.3 kmh NW 10.0 mph16.1 kmh 30.08 in1018.6 mb 0.00 in0.0 mm 0.00 in/hr0.0 mm/hr 0.00 in0.0 mm
07:01 PM 31.5°F-0.3°C 21.5°F-5.8°C 66% 5.0 mph WNW8.0 kmh WNW 10.0 mph16.1 kmh 30.08 in1018.6 mb 0.00 in0.0 mm 0.00 in/hr0.0 mm/hr 0.00 in0.0 mm
07:15 PM 31.4°F-0.3°C 21.0°F-6.1°C 65% 9.0 mph NW14.5 kmh NW 14.0 mph22.5 kmh 30.09 in1019.0 mb 0.00 in0.0 mm 0.00 in/hr0.0 mm/hr 0.00 in0.0 mm
07:30 PM 31.3°F-0.4°C 20.2°F-6.6°C 63% 9.0 mph WSW14.5 kmh WSW 14.0 mph22.5 kmh 30.10 in1019.3 mb 0.00 in0.0 mm 0.00 in/hr0.0 mm/hr 0.00 in0.0 mm
07:45 PM 31.2°F-0.4°C 20.1°F-6.6°C 63% 9.0 mph WNW14.5 kmh WNW 14.0 mph22.5 kmh 30.11 in1019.6 mb 0.00 in0.0 mm 0.00 in/hr0.0 mm/hr 0.00 in0.0 mm
08:01 PM 31.0°F-0.6°C 19.9°F-6.7°C 63% 4.0 mph NW6.4 kmh NW 17.0 mph27.4 kmh 30.11 in1019.6 mb 0.00 in0.0 mm 0.00 in/hr0.0 mm/hr 0.00 in0.0 mm
08:15 PM 30.9°F-0.6°C 20.5°F-6.4°C 65% 6.0 mph NW9.7 kmh NW 7.0 mph11.3 kmh 30.12 in1020.0 mb 0.00 in0.0 mm 0.00 in/hr0.0 mm/hr 0.00 in0.0 mm
08:30 PM 30.8°F-0.7°C 20.1°F-6.6°C 64% 3.0 mph WNW4.8 kmh WNW 9.0 mph14.5 kmh 30.12 in1020.0 mb 0.00 in0.0 mm 0.00 in/hr0.0 mm/hr 0.00 in0.0 mm
08:45 PM 30.7°F-0.7°C 20.7°F-6.3°C 66% 1.0 mph NW1.6 kmh NW 4.0 mph6.4 kmh 30.12 in1020.0 mb 0.00 in0.0 mm 0.00 in/hr0.0 mm/hr 0.00 in0.0 mm
09:01 PM 30.7°F-0.7°C 20.7°F-6.3°C 66% 1.0 mph NW1.6 kmh NW 4.0 mph6.4 kmh 30.14 in1020.7 mb 0.00 in0.0 mm 0.00 in/hr0.0 mm/hr 0.00 in0.0 mm
09:15 PM 30.6°F-0.8°C 20.3°F-6.5°C 65% 4.0 mph NW6.4 kmh NW 8.0 mph12.9 kmh 30.15 in1021.0 mb 0.00 in0.0 mm 0.00 in/hr0.0 mm/hr 0.00 in0.0 mm
09:30 PM 30.4°F-0.9°C 20.8°F-6.2°C 67% 2.0 mph WSW3.2 kmh WSW 6.0 mph9.7 kmh 30.15 in1021.0 mb 0.00 in0.0 mm 0.00 in/hr0.0 mm/hr 0.00 in0.0 mm
09:45 PM 30.3°F-0.9°C 20.3°F-6.5°C 66% 3.0 mph NW4.8 kmh NW 5.0 mph8.0 kmh 30.15 in1021.0 mb 0.00 in0.0 mm 0.00 in/hr0.0 mm/hr 0.00 in0.0 mm
10:01 PM 30.3°F-0.9°C 20.0°F-6.7°C 65% 8.0 mph NW12.9 kmh NW 10.0 mph16.1 kmh 30.15 in1021.0 mb 0.00 in0.0 mm 0.00 in/hr0.0 mm/hr 0.00 in0.0 mm
10:15 PM 30.2°F-1.0°C 20.2°F-6.6°C 66% 5.0 mph N8.0 kmh N 6.0 mph9.7 kmh 30.16 in1021.3 mb 0.00 in0.0 mm 0.00 in/hr0.0 mm/hr 0.00 in0.0 mm
10:30 PM 30.1°F-1.1°C 20.5°F-6.4°C 67% 5.0 mph NW8.0 kmh NW 5.0 mph8.0 kmh 30.16 in1021.3 mb 0.00 in0.0 mm 0.00 in/hr0.0 mm/hr 0.00 in0.0 mm
10:45 PM 30.0°F-1.1°C 20.7°F-6.3°C 68% 2.0 mph NW3.2 kmh NW 6.0 mph9.7 kmh 30.17 in1021.7 mb 0.00 in0.0 mm 0.00 in/hr0.0 mm/hr 0.00 in0.0 mm
11:01 PM 29.9°F-1.2°C 20.6°F-6.3°C 68% 4.0 mph NW6.4 kmh NW 4.0 mph6.4 kmh 30.17 in1021.7 mb 0.00 in0.0 mm 0.00 in/hr0.0 mm/hr 0.00 in0.0 mm
11:15 PM 29.8°F-1.2°C 20.9°F-6.2°C 69% 4.0 mph WNW6.4 kmh WNW 5.0 mph8.0 kmh 30.18 in1022.0 mb 0.00 in0.0 mm 0.00 in/hr0.0 mm/hr 0.00 in0.0 mm
11:30 PM 29.7°F-1.3°C 20.8°F-6.2°C 69% 2.0 mph WNW3.2 kmh WNW 4.0 mph6.4 kmh 30.18 in1022.0 mb 0.00 in0.0 mm 0.00 in/hr0.0 mm/hr 0.00 in0.0 mm
11:45 PM 29.6°F-1.3°C 20.7°F-6.3°C 69% 3.0 mph WNW4.8 kmh WNW 7.0 mph11.3 kmh 30.19 in1022.4 mb 0.00 in0.0 mm 0.00 in/hr0.0 mm/hr 0.00 in0.0 mm